Coral Harbour, Canada
Current Conditions -  °F | °C
As of 5:00 PM on Thursday 20 Nov 2014 (Local Time) from CYZS Reporting Station
Light Snow Light Snow  
Wind Chill: -11°   Ceiling: 900
Heat Index:   Visibility: 3mi
Dew Point: -2°   Wind: 12mph
Humidity: 72%   Direction: 330°NNW
Pressure: 29.37"   Gusts: NA
Location:  64.14°N, 83.17°W
Report Text: CYZS 202200Z 33010KT 3SM -SN OVC009 M15/M19 A2937 RMK SC8SLP953
Loading
Personal Weather Stations






























Interactive Weather Map New forecast layout! Learn more

10-Day Weather Forecast

Advertisements
Track Severe Weather on mobile